Time;durP1;ratioP1;P1;durP2;ratioP2;P2;SDS_P1;SDS_P2;PMS_P1;PMS_P2;Temp;Humidity;BMP_temperature;BMP_pressure;BME280_temperature;BME280_humidity;BME280_pressure;Samples;Min_cycle;Max_cycle;Signal;HPM_P1;HPM_P2
2021/03/04 00:00:59;;;;;;;13.00;10.35;;;;;;;7.86;63.93;101478.91;5099086;28;20032;-71
2021/03/04 00:03:25;;;;;;;12.32;10.25;;;;;;;7.67;64.38;101478.25;5098912;28;20034;-71
2021/03/04 00:06:02;;;;;;;13.00;10.70;;;;;;;7.67;64.33;101483.78;5099811;28;20028;-71
2021/03/04 00:08:28;;;;;;;14.27;10.95;;;;;;;7.73;64.51;101477.00;5098979;28;20028;-71
2021/03/04 00:10:53;;;;;;;13.38;11.07;;;;;;;7.69;64.07;101459.34;5098986;28;20085;-71
2021/03/04 00:13:20;;;;;;;12.82;9.75;;;;;;;7.73;64.75;101482.53;5098901;28;20107;-71
2021/03/04 00:15:50;;;;;;;11.68;9.50;;;;;;;7.65;65.26;101476.91;5098833;28;20020;-71
2021/03/04 00:18:15;;;;;;;10.85;9.48;;;;;;;7.63;64.99;101477.22;5100145;28;20485;-71
2021/03/04 00:20:41;;;;;;;11.40;9.23;;;;;;;7.72;64.48;101467.03;5081887;28;20097;-71
2021/03/04 00:23:07;;;;;;;11.50;9.88;;;;;;;7.58;64.13;101469.03;5098747;28;20024;-71
2021/03/04 00:25:34;;;;;;;13.65;9.40;;;;;;;7.60;64.75;101472.28;5098731;28;20043;-71
2021/03/04 00:28:01;;;;;;;15.70;10.10;;;;;;;7.58;64.32;101474.56;5099039;28;20043;-71
2021/03/04 00:30:27;;;;;;;13.02;9.52;;;;;;;7.63;64.34;101466.16;5098923;28;20088;-71
2021/03/04 00:32:53;;;;;;;12.50;9.75;;;;;;;7.66;64.39;101468.28;5098672;28;20111;-71
2021/03/04 00:35:18;;;;;;;11.10;8.90;;;;;;;7.48;64.63;101458.19;5098792;28;20032;-71
2021/03/04 00:37:44;;;;;;;10.73;9.63;;;;;;;7.34;64.85;101423.00;5094763;28;20152;-71
2021/03/04 00:40:12;;;;;;;11.00;9.90;;;;;;;7.59;64.47;101457.63;5096028;28;20028;-71
2021/03/04 00:42:38;;;;;;;11.95;9.05;;;;;;;7.57;64.29;101454.38;5095301;28;20024;-71
2021/03/04 00:45:09;;;;;;;10.35;8.93;;;;;;;7.53;64.29;101450.56;5095292;28;20040;-71
2021/03/04 00:47:34;;;;;;;11.55;9.25;;;;;;;7.55;65.11;101455.78;5095236;28;20035;-71
2021/03/04 00:50:00;;;;;;;11.02;9.23;;;;;;;7.53;65.31;101456.13;5095840;28;20028;-71
2021/03/04 00:52:26;;;;;;;12.43;9.13;;;;;;;7.52;65.21;101442.59;5079231;28;20097;-71
2021/03/04 00:54:55;;;;;;;15.55;9.25;;;;;;;7.54;65.37;101452.22;5095425;28;20417;-73
2021/03/04 00:57:20;;;;;;;10.43;9.32;;;;;;;7.52;65.39;101437.03;5095692;28;20032;-71
2021/03/04 00:59:46;;;;;;;14.82;9.98;;;;;;;7.60;64.75;101433.53;5095354;28;20429;-71
2021/03/04 01:02:11;;;;;;;13.38;10.02;;;;;;;7.55;65.43;101441.94;5095764;28;20406;-71
2021/03/04 01:04:37;;;;;;;12.18;9.40;;;;;;;7.50;65.68;101433.75;5094962;28;20524;-71
2021/03/04 01:07:03;;;;;;;10.85;9.48;;;;;;;7.57;65.19;101434.16;5094945;28;20119;-71
2021/03/04 01:09:28;;;;;;;10.20;8.75;;;;;;;7.53;64.45;101427.59;5094864;28;20031;-71
2021/03/04 01:11:54;;;;;;;10.38;9.27;;;;;;;7.46;65.56;101424.44;5094824;28;20032;-71
2021/03/04 01:14:19;;;;;;;11.50;10.30;;;;;;;7.36;66.15;101425.50;5094797;28;20035;-71
2021/03/04 01:16:45;;;;;;;11.02;9.15;;;;;;;7.32;66.67;101422.50;5094731;28;20028;-71
2021/03/04 01:19:11;;;;;;;12.43;9.45;;;;;;;7.35;65.91;101423.88;5097807;28;20050;-71
2021/03/04 01:21:36;;;;;;;12.10;10.02;;;;;;;7.29;66.56;101414.00;5098033;28;20026;-71
2021/03/04 01:24:02;;;;;;;15.07;9.68;;;;;;;7.26;66.38;101406.34;5098035;28;20024;-71
2021/03/04 01:26:28;;;;;;;11.55;9.52;;;;;;;7.21;66.31;101404.50;5098503;28;20019;-71
2021/03/04 01:28:53;;;;;;;12.10;9.93;;;;;;;7.36;65.92;101406.13;5097958;28;20401;-71
2021/03/04 01:31:19;;;;;;;13.32;10.05;;;;;;;7.38;65.36;101403.84;5098406;28;20136;-71
2021/03/04 01:33:44;;;;;;;12.52;9.80;;;;;;;7.41;65.35;101407.94;5098036;28;20477;-71
2021/03/04 01:36:10;;;;;;;14.30;9.63;;;;;;;7.24;66.26;101403.84;5098072;28;20035;-71
2021/03/04 01:38:36;;;;;;;15.82;9.60;;;;;;;7.23;66.33;101402.22;5098004;28;20027;-72
2021/03/04 01:41:01;;;;;;;12.23;8.93;;;;;;;7.19;65.47;101395.69;5098219;28;20055;-71
2021/03/04 01:43:27;;;;;;;13.02;8.82;;;;;;;7.12;65.92;101395.28;5097808;28;20031;-71
2021/03/04 01:45:52;;;;;;;11.13;8.57;;;;;;;7.17;65.82;101395.16;5097508;28;20069;-71
2021/03/04 01:48:18;;;;;;;11.07;9.60;;;;;;;7.08;66.61;101389.56;5096369;28;20032;-70
2021/03/04 01:50:46;;;;;;;11.82;8.88;;;;;;;7.12;66.07;101381.44;5097444;28;20023;-71
2021/03/04 01:53:12;;;;;;;9.43;8.43;;;;;;;7.05;65.65;101384.63;5097746;28;20138;-71
2021/03/04 01:55:38;;;;;;;9.30;8.13;;;;;;;7.04;65.60;101383.00;5080551;28;20549;-71
2021/03/04 01:58:04;;;;;;;11.30;8.18;;;;;;;7.03;65.93;101378.59;5097256;28;20023;-71
2021/03/04 02:00:29;;;;;;;9.68;8.68;;;;;;;7.02;65.70;101379.72;5097790;28;20023;-71
2021/03/04 02:02:55;;;;;;;12.05;8.00;;;;;;;6.94;65.69;101383.22;5097416;28;20027;-71
2021/03/04 02:05:22;;;;;;;10.73;8.90;;;;;;;6.99;66.54;101382.28;5097154;28;20055;-71
2021/03/04 02:07:54;;;;;;;10.40;8.65;;;;;;;7.10;65.59;101380.94;5097600;28;20386;-71
2021/03/04 02:10:41;;;;;;;9.95;8.20;;;;;;;7.13;66.07;101374.78;5097603;28;20020;-71
2021/03/04 02:13:12;;;;;;;12.00;8.93;;;;;;;7.14;65.94;101379.19;5097083;28;20092;-71
2021/03/04 02:15:47;;;;;;;9.65;8.10;;;;;;;7.04;66.11;101365.59;5096952;28;20050;-71
2021/03/04 02:18:16;;;;;;;11.75;8.65;;;;;;;7.05;66.53;101364.44;5080964;28;20028;-71
2021/03/04 02:21:09;;;;;;;12.90;9.65;;;;;;;6.95;66.57;101359.13;5096448;28;20089;-71
2021/03/04 02:24:13;;;;;;;12.45;8.52;;;;;;;7.07;65.93;101359.41;5096720;28;20122;-71
2021/03/04 02:27:01;;;;;;;9.50;8.23;;;;;;;6.98;66.27;101356.56;5025613;28;20107;-71
2021/03/04 02:29:27;;;;;;;10.88;9.07;;;;;;;6.99;66.74;101351.84;5097250;28;20035;-71
2021/03/04 02:31:56;;;;;;;12.02;8.75;;;;;;;6.91;66.40;101356.16;5096938;28;20482;-71
2021/03/04 02:34:25;;;;;;;11.10;8.60;;;;;;;7.04;66.64;101355.34;5096636;28;20028;-71
2021/03/04 02:36:52;;;;;;;10.68;9.07;;;;;;;6.92;66.10;101340.38;5097151;28;20028;-70
2021/03/04 02:39:19;;;;;;;10.20;8.68;;;;;;;6.98;66.43;101353.00;5096532;28;20034;-71
2021/03/04 02:41:45;;;;;;;9.82;8.32;;;;;;;6.97;66.89;101356.88;5097362;28;20038;-71
2021/03/04 02:44:12;;;;;;;8.85;7.93;;;;;;;6.91;67.30;101349.81;5096365;28;20033;-71
2021/03/04 02:46:39;;;;;;;11.02;9.52;;;;;;;6.95;66.89;101345.31;5079958;28;20031;-71
2021/03/04 02:49:07;;;;;;;11.60;9.25;;;;;;;6.82;67.47;101342.25;5096351;28;20028;-71
2021/03/04 02:51:35;;;;;;;10.75;9.43;;;;;;;6.84;67.52;101350.22;5096335;28;20122;-71
2021/03/04 02:54:03;;;;;;;12.07;9.93;;;;;;;6.82;66.73;101353.31;5096303;28;20074;-71
2021/03/04 02:56:30;;;;;;;9.32;8.32;;;;;;;6.91;66.46;101347.03;5096218;28;20031;-71
2021/03/04 02:59:01;;;;;;;10.73;8.35;;;;;;;6.72;67.16;101342.47;5096189;28;20031;-71
2021/03/04 03:01:28;;;;;;;9.70;7.75;;;;;;;6.87;67.01;101344.09;5096730;28;20027;-71
2021/03/04 03:03:54;;;;;;;9.43;8.45;;;;;;;6.83;66.58;101351.38;5096665;28;20027;-71
2021/03/04 03:06:23;;;;;;;9.63;7.50;;;;;;;6.90;67.10;101342.63;5096173;28;20019;-71
2021/03/04 03:08:49;;;;;;;9.25;8.32;;;;;;;6.83;67.45;101348.59;5096106;28;20036;-71
2021/03/04 03:11:16;;;;;;;8.40;7.47;;;;;;;6.77;67.76;101350.66;5096047;28;20043;-71
2021/03/04 03:13:46;;;;;;;9.68;8.60;;;;;;;6.74;67.89;101342.16;5096334;28;20028;-71
2021/03/04 03:16:11;;;;;;;8.75;7.85;;;;;;;6.80;67.08;101341.72;5096051;28;20031;-71
2021/03/04 03:18:37;;;;;;;9.43;7.78;;;;;;;6.70;67.08;101343.88;5096006;28;20036;-71
2021/03/04 03:21:03;;;;;;;7.85;7.05;;;;;;;6.79;67.32;101344.81;5092066;28;20048;-71
2021/03/04 03:23:28;;;;;;;9.20;7.70;;;;;;;6.72;67.45;101348.00;5093076;28;20020;-71
2021/03/04 03:25:54;;;;;;;8.63;7.30;;;;;;;6.63;67.46;101351.78;5092550;28;20463;-71
2021/03/04 03:28:19;;;;;;;12.93;8.85;;;;;;;6.60;67.70;101344.91;5092568;28;20032;-71
2021/03/04 03:30:45;;;;;;;53.08;36.38;;;;;;;6.55;67.76;101345.00;5092490;28;20073;-71
2021/03/04 03:33:17;;;;;;;59.55;41.05;;;;;;;6.50;67.13;101350.69;5092453;28;20093;-71
2021/03/04 03:35:43;;;;;;;47.08;36.80;;;;;;;6.48;67.04;101339.09;5092137;28;20050;-71
2021/03/04 03:38:10;;;;;;;42.58;34.80;;;;;;;6.43;66.40;101344.72;5092714;28;20039;-71
2021/03/04 03:40:37;;;;;;;29.38;25.77;;;;;;;6.51;66.14;101341.25;5092426;28;20031;-71
2021/03/04 03:43:07;;;;;;;32.47;25.48;;;;;;;6.48;65.61;101341.84;5093603;28;20032;-71
2021/03/04 03:45:40;;;;;;;50.50;34.47;;;;;;;6.54;65.59;101332.31;5093206;28;20485;-71
2021/03/04 03:48:11;;;;;;;30.40;24.13;;;;;;;6.54;65.05;101337.84;5092365;28;20039;-71
2021/03/04 03:50:39;;;;;;;20.98;16.48;;;;;;;6.62;65.31;101336.31;5092915;28;20028;-71
2021/03/04 03:53:05;;;;;;;16.10;13.00;;;;;;;6.55;64.63;101326.50;5092620;28;20546;-71
2021/03/04 03:55:31;;;;;;;13.18;11.85;;;;;;;6.64;64.92;101340.41;5092315;28;20036;-71
2021/03/04 03:58:00;;;;;;;11.48;10.20;;;;;;;6.55;64.47;101329.28;5092265;28;20035;-71
2021/03/04 04:00:26;;;;;;;13.65;12.25;;;;;;;6.49;65.16;101333.25;5075636;28;20145;-71
2021/03/04 04:03:10;;;;;;;14.13;11.65;;;;;;;6.55;65.19;101331.19;5092208;28;20028;-71
2021/03/04 04:05:37;;;;;;;17.73;15.95;;;;;;;6.60;64.81;101333.84;5092449;28;20028;-71
2021/03/04 04:08:03;;;;;;;18.88;16.95;;;;;;;6.59;65.07;101337.75;5092315;28;20036;-71
2021/03/04 04:10:31;;;;;;;21.77;18.80;;;;;;;6.58;64.73;101330.59;5092713;28;20479;-71
2021/03/04 04:12:57;;;;;;;18.40;16.58;;;;;;;6.51;65.13;101332.94;5095844;28;20046;-71
2021/03/04 04:15:24;;;;;;;16.95;13.68;;;;;;;6.45;64.97;101331.41;5095893;28;20489;-71
2021/03/04 04:17:50;;;;;;;18.13;13.18;;;;;;;6.30;66.00;101325.06;5079022;28;20063;-71
2021/03/04 04:20:20;;;;;;;20.60;16.48;;;;;;;6.25;66.19;101325.16;5095581;28;20056;-71
2021/03/04 04:22:47;;;;;;;36.78;26.45;;;;;;;6.23;66.37;101323.81;5096000;28;20028;-71
2021/03/04 04:25:14;;;;;;;34.95;26.67;;;;;;;6.22;66.16;101323.00;5095698;28;20090;-70
2021/03/04 04:27:41;;;;;;;30.15;21.30;;;;;;;6.21;65.99;101315.84;5096545;28;20088;-71
2021/03/04 04:30:07;;;;;;;27.33;17.98;;;;;;;6.15;65.92;101311.53;5095665;28;20078;-71
2021/03/04 04:32:33;;;;;;;28.17;20.98;;;;;;;6.12;66.46;101316.84;5095531;28;20036;-71
2021/03/04 04:34:59;;;;;;;25.40;19.83;;;;;;;6.22;66.08;101323.00;5095605;28;20032;-71
2021/03/04 04:37:25;;;;;;;24.45;18.02;;;;;;;6.20;66.49;101322.50;5095776;28;20127;-71
2021/03/04 04:39:51;;;;;;;16.80;13.57;;;;;;;6.23;65.71;101313.59;5096026;28;20520;-71
2021/03/04 04:42:17;;;;;;;17.20;14.27;;;;;;;6.21;65.78;101315.00;5095625;28;20028;-71
2021/03/04 04:44:43;;;;;;;19.33;14.27;;;;;;;6.24;66.40;101318.00;5095391;28;20028;-71
2021/03/04 04:47:08;;;;;;;13.48;10.95;;;;;;;6.22;65.08;101311.13;5095604;28;20043;-71
2021/03/04 04:49:34;;;;;;;20.13;13.80;;;;;;;6.20;65.21;101314.19;5095843;28;20028;-71
2021/03/04 04:51:59;;;;;;;16.83;13.65;;;;;;;6.17;65.19;101320.31;5095559;28;20500;-71
2021/03/04 04:54:25;;;;;;;21.70;17.20;;;;;;;6.07;65.54;101311.41;5095732;28;20351;-71
2021/03/04 04:56:50;;;;;;;24.80;16.00;;;;;;;6.08;65.89;101308.38;5095134;28;20382;-71
2021/03/04 04:59:16;;;;;;;25.25;16.90;;;;;;;6.10;66.39;101314.38;5095115;28;20032;-71
2021/03/04 05:01:42;;;;;;;20.08;15.38;;;;;;;6.14;65.91;101309.91;5095081;28;20020;-71
2021/03/04 05:04:07;;;;;;;16.02;12.38;;;;;;;6.04;66.06;101304.56;5095527;28;20073;-71
2021/03/04 05:06:33;;;;;;;13.15;10.27;;;;;;;6.13;66.03;101302.75;5094639;28;20027;-71
2021/03/04 05:08:58;;;;;;;12.50;8.48;;;;;;;6.14;65.60;101298.84;5094930;28;20032;-71
2021/03/04 05:11:24;;;;;;;13.98;7.72;;;;;;;6.05;65.87;101284.09;5094843;28;20028;-71
2021/03/04 05:13:49;;;;;;;12.43;6.97;;;;;;;6.20;65.67;101303.16;5094864;28;20024;-71
2021/03/04 05:16:15;;;;;;;9.13;7.25;;;;;;;6.24;65.27;101303.38;5094779;28;20020;-70
2021/03/04 05:18:41;;;;;;;9.82;7.82;;;;;;;6.14;65.35;101293.31;5095328;28;20029;-71
2021/03/04 05:21:06;;;;;;;9.48;7.18;;;;;;;6.08;66.33;101283.50;5094405;28;20055;-71
2021/03/04 05:23:32;;;;;;;10.57;8.38;;;;;;;6.09;66.87;101296.19;5094255;28;20415;-71
2021/03/04 05:25:58;;;;;;;8.73;7.47;;;;;;;6.06;67.01;101287.66;5094633;28;20028;-71
2021/03/04 05:28:24;;;;;;;12.65;7.35;;;;;;;6.14;67.18;101284.22;5094622;28;20035;-71
2021/03/04 05:30:52;;;;;;;9.35;7.70;;;;;;;6.07;66.64;101276.31;5094816;28;20032;-72
2021/03/04 05:33:21;;;;;;;9.05;6.78;;;;;;;5.99;66.50;101288.91;5094533;28;20050;-71
2021/03/04 05:35:47;;;;;;;7.20;6.60;;;;;;;6.00;66.73;101285.00;5078274;28;20455;-71
2021/03/04 05:38:13;;;;;;;13.32;7.90;;;;;;;5.97;67.03;101279.28;5094392;28;20123;-71
2021/03/04 05:40:39;;;;;;;7.85;7.05;;;;;;;6.13;66.72;101285.34;5094612;28;20028;-72
2021/03/04 05:43:05;;;;;;;10.50;6.53;;;;;;;6.37;65.39;101285.13;5094204;28;20028;-71
2021/03/04 05:45:30;;;;;;;9.25;7.22;;;;;;;6.66;64.36;101288.41;5093943;28;20059;-70
2021/03/04 05:47:56;;;;;;;10.07;6.63;;;;;;;7.01;63.30;101277.63;5094193;28;20493;-71
2021/03/04 05:50:26;;;;;;;8.45;6.68;;;;;;;7.51;61.90;101291.38;5094228;28;20054;-71
2021/03/04 05:53:14;;;;;;;9.40;6.70;;;;;;;8.12;59.73;101284.25;5094522;28;20052;-71
2021/03/04 05:55:44;;;;;;;8.40;6.43;;;;;;;8.65;57.81;101283.31;5094056;28;20024;-71
2021/03/04 05:58:11;;;;;;;13.20;6.13;;;;;;;9.25;56.06;101295.59;5093976;28;20031;-71
2021/03/04 06:00:37;;;;;;;8.70;6.38;;;;;;;9.72;54.14;101285.41;5093994;28;20527;-71
2021/03/04 06:03:06;;;;;;;8.20;6.70;;;;;;;10.27;52.93;101284.59;5094161;28;20068;-71
2021/03/04 06:05:32;;;;;;;8.38;6.55;;;;;;;10.77;51.13;101283.06;5094119;28;20028;-71
2021/03/04 06:08:00;;;;;;;6.50;5.90;;;;;;;11.32;48.64;101287.53;5093785;28;20597;-71
2021/03/04 06:10:28;;;;;;;8.80;6.50;;;;;;;11.79;48.22;101285.28;5093707;28;20036;-71
2021/03/04 06:12:54;;;;;;;12.07;7.15;;;;;;;12.17;46.91;101281.44;5094955;28;20119;-71
2021/03/04 06:15:22;;;;;;;11.65;6.53;;;;;;;12.52;46.01;101262.28;5094608;28;20039;-71
2021/03/04 06:17:57;;;;;;;15.43;7.03;;;;;;;13.18;45.18;101286.22;5093974;28;20131;-71
2021/03/04 06:20:34;;;;;;;7.38;6.68;;;;;;;13.51;44.07;101284.03;5093349;28;20059;-71
2021/03/04 06:23:00;;;;;;;7.85;6.88;;;;;;;14.02;42.83;101298.22;5093673;28;20551;-71
2021/03/04 06:25:28;;;;;;;8.90;6.68;;;;;;;14.39;42.20;101298.78;5093755;28;20028;-72
2021/03/04 06:27:54;;;;;;;7.15;6.45;;;;;;;14.73;41.21;101292.81;5092981;28;20038;-71
2021/03/04 06:30:20;;;;;;;8.95;6.82;;;;;;;14.99;41.09;101295.03;5094076;28;20043;-71
2021/03/04 06:33:06;;;;;;;9.98;7.20;;;;;;;15.41;40.24;101297.94;5093919;28;20020;-72
2021/03/04 06:35:36;;;;;;;8.88;7.85;;;;;;;15.93;39.27;101293.78;5092910;28;20123;-71
2021/03/04 06:38:22;;;;;;;10.52;8.65;;;;;;;16.33;38.67;101300.91;5093415;28;20445;-72
2021/03/04 06:40:50;;;;;;;13.10;10.63;;;;;;;16.41;38.81;101302.66;5093432;28;20039;-71
2021/03/04 06:43:27;;;;;;;10.52;8.70;;;;;;;16.60;37.85;101305.38;5093511;28;20355;-71
2021/03/04 06:46:07;;;;;;;13.48;8.98;;;;;;;17.06;38.10;101290.44;5093440;28;20121;-71
2021/03/04 06:48:33;;;;;;;11.13;9.65;;;;;;;17.31;36.47;101299.19;5076196;28;20172;-71
2021/03/04 06:51:00;;;;;;;15.38;10.60;;;;;;;17.34;37.05;101298.44;5076043;28;20028;-72
2021/03/04 06:53:31;;;;;;;17.00;10.55;;;;;;;17.78;36.49;101305.03;5092271;28;20032;-72
2021/03/04 06:56:06;;;;;;;12.02;10.32;;;;;;;17.79;35.45;101303.84;5092745;28;20114;-72
2021/03/04 06:58:40;;;;;;;18.75;15.55;;;;;;;16.49;38.20;101298.78;5092630;28;20020;-72
2021/03/04 07:01:16;;;;;;;14.27;11.45;;;;;;;15.71;40.43;101293.38;5093241;28;20032;-72
2021/03/04 07:03:46;;;;;;;16.90;11.95;;;;;;;15.78;39.48;101280.66;5092533;28;20024;-72
2021/03/04 07:06:16;;;;;;;16.40;11.90;;;;;;;16.20;39.11;101298.28;5092768;28;20470;-71
2021/03/04 07:08:44;;;;;;;14.00;10.82;;;;;;;16.49;38.42;101298.78;5092780;28;20028;-71
2021/03/04 07:11:15;;;;;;;12.18;9.57;;;;;;;16.23;38.69;101303.16;5092485;28;20028;-71
2021/03/04 07:13:42;;;;;;;11.88;9.45;;;;;;;16.29;38.82;101303.66;5092356;28;20028;-71
2021/03/04 07:16:32;;;;;;;14.00;12.38;;;;;;;16.25;39.66;101297.19;5092359;28;20031;-71
2021/03/04 07:19:00;;;;;;;12.30;11.05;;;;;;;17.01;37.61;101294.38;5094224;28;20074;-71
2021/03/04 07:21:33;;;;;;;11.95;10.20;;;;;;;17.53;36.93;101312.34;5095590;28;20038;-70
2021/03/04 07:24:03;;;;;;;14.57;12.13;;;;;;;17.88;36.45;101305.53;5096069;28;20024;-71
2021/03/04 07:26:29;;;;;;;13.95;11.52;;;;;;;17.85;36.49;101306.31;5113606;28;20056;-71
2021/03/04 07:28:56;;;;;;;13.90;12.55;;;;;;;17.97;35.30;101297.59;5096116;28;20459;-71
2021/03/04 07:31:21;;;;;;;13.13;11.45;;;;;;;17.97;36.69;101300.41;5095528;28;20023;-72
2021/03/04 07:33:49;;;;;;;17.65;14.93;;;;;;;17.85;36.60;101309.16;5095649;28;20027;-71
2021/03/04 07:36:21;;;;;;;16.23;13.38;;;;;;;17.54;37.64;101313.97;5095473;28;20028;-71
2021/03/04 07:38:57;;;;;;;12.90;11.52;;;;;;;17.01;38.42;101308.44;5095707;28;20081;-71
2021/03/04 07:41:34;;;;;;;15.35;12.07;;;;;;;17.54;37.66;101302.72;5095582;28;20363;-71
2021/03/04 07:44:00;;;;;;;14.77;12.77;;;;;;;17.39;37.97;101306.53;5095629;28;20027;-71
2021/03/04 07:46:44;;;;;;;15.65;11.13;;;;;;;17.84;37.62;101304.69;5098513;28;20058;-70
2021/03/04 07:49:28;;;;;;;13.25;11.30;;;;;;;17.74;37.86;101307.03;5099404;28;20034;-71
2021/03/04 07:51:54;;;;;;;16.25;12.10;;;;;;;18.22;37.10;101307.13;5099552;28;20128;-71
2021/03/04 07:54:27;;;;;;;13.02;11.73;;;;;;;16.83;38.88;101301.72;5099390;28;20152;-71
2021/03/04 07:57:12;;;;;;;;;;;;;;;17.78;37.98;101302.22;5099776;28;20055;-71
2021/03/04 07:59:54;;;;;;;19.38;14.68;;;;;;;17.16;39.02;101312.28;5099335;28;19908;-71
2021/03/04 08:02:32;;;;;;;12.20;10.77;;;;;;;16.58;42.34;101310.56;5099017;28;20031;-71
2021/03/04 08:05:07;;;;;;;12.90;11.50;;;;;;;17.03;40.67;101301.25;5099778;28;20020;-71
2021/03/04 08:07:33;;;;;;;15.02;13.63;;;;;;;16.80;41.22;101306.13;5099047;28;20028;-70
2021/03/04 08:10:15;;;;;;;15.75;12.02;;;;;;;17.40;39.74;101308.16;5099058;28;20038;-70
2021/03/04 08:13:00;;;;;;;10.10;9.10;;;;;;;16.39;40.24;101299.41;5098928;28;20036;-71
2021/03/04 08:15:35;;;;;;;14.07;12.35;;;;;;;17.07;39.79;101312.53;5117415;28;20500;-70
2021/03/04 08:18:02;;;;;;;14.52;11.48;;;;;;;16.99;40.16;101305.19;5099208;28;20046;-70
2021/03/04 08:20:28;;;;;;;13.35;12.05;;;;;;;17.44;38.64;101304.19;5117190;28;20192;-69
2021/03/04 08:22:57;;;;;;;14.57;12.38;;;;;;;17.87;37.96;101312.38;5098985;28;20102;-72
2021/03/04 08:25:25;;;;;;;13.85;11.15;;;;;;;17.85;39.46;101300.69;5082296;28;20031;-70
2021/03/04 08:27:53;;;;;;;11.95;10.63;;;;;;;17.15;39.53;101279.69;5098901;28;20024;-70
2021/03/04 08:30:30;;;;;;;10.18;9.13;;;;;;;17.82;39.54;101295.81;5098841;28;20118;-70
2021/03/04 08:32:59;;;;;;;14.13;9.88;;;;;;;17.43;38.97;101301.78;5098703;28;20034;-71
2021/03/04 08:35:25;;;;;;;15.98;12.23;;;;;;;17.17;40.87;101283.75;5099729;28;20035;-70
2021/03/04 08:37:56;;;;;;;26.45;11.93;;;;;;;17.50;40.40;101296.22;5098724;28;20027;-70
2021/03/04 08:40:21;;;;;;;11.57;10.48;;;;;;;16.83;42.25;101293.31;5099360;28;20020;-71
2021/03/04 08:42:48;;;;;;;11.40;10.00;;;;;;;17.30;42.30;101289.94;5099021;28;20020;-70
2021/03/04 08:45:13;;;;;;;12.70;10.95;;;;;;;17.43;41.47;101288.53;5099076;28;20035;-71
2021/03/04 08:47:40;;;;;;;12.68;11.40;;;;;;;17.29;41.22;101297.56;5098410;28;20465;-71
2021/03/04 08:50:06;;;;;;;17.48;13.50;;;;;;;17.71;41.77;101293.66;5098533;28;20035;-70
2021/03/04 08:52:34;;;;;;;11.70;10.20;;;;;;;18.17;40.62;101284.94;5098443;28;20024;-70
2021/03/04 08:55:03;;;;;;;12.63;11.32;;;;;;;18.21;41.20;101285.75;5098875;28;20067;-70
2021/03/04 08:57:29;;;;;;;11.65;10.52;;;;;;;18.28;40.62;101285.84;5098515;28;20040;-71
2021/03/04 09:00:12;;;;;;;10.93;9.88;;;;;;;19.48;39.20;101283.38;5098472;28;20036;-70
2021/03/04 09:02:38;;;;;;;11.07;9.95;;;;;;;19.19;39.14;101283.28;5098085;28;20106;-71
2021/03/04 09:05:06;;;;;;;12.18;9.93;;;;;;;20.20;38.00;101284.41;5098366;28;20138;-71
2021/03/04 09:07:40;;;;;;;12.15;10.88;;;;;;;20.03;37.34;101284.00;5098125;28;20041;-71
2021/03/04 09:10:06;;;;;;;12.45;11.18;;;;;;;19.78;37.82;101286.75;5098115;28;20122;-70
2021/03/04 09:12:41;;;;;;;10.90;9.63;;;;;;;19.93;37.76;101281.94;5097807;28;20038;-71
2021/03/04 09:15:08;;;;;;;13.07;11.80;;;;;;;19.33;38.56;101272.06;5081217;28;20374;-70
2021/03/04 09:17:45;;;;;;;13.90;11.63;;;;;;;18.70;39.41;101276.13;5098094;28;20032;-71
2021/03/04 09:20:12;;;;;;;22.65;12.82;;;;;;;17.89;41.41;101279.00;5094010;28;20051;-70
2021/03/04 09:22:44;;;;;;;13.40;11.43;;;;;;;18.84;41.25;101276.22;5094848;28;20028;-70
2021/03/04 09:25:20;;;;;;;14.82;10.57;;;;;;;18.99;38.99;101279.94;5094890;28;20036;-71
2021/03/04 09:27:46;;;;;;;12.05;9.48;;;;;;;18.11;42.53;101275.22;5094411;28;20119;-71
2021/03/04 09:30:27;;;;;;;10.60;9.50;;;;;;;17.47;43.63;101260.41;5094681;28;20445;-70
2021/03/04 09:32:54;;;;;;;11.50;7.93;;;;;;;17.89;42.78;101265.72;5094865;28;20032;-70
2021/03/04 09:35:20;;;;;;;13.57;8.10;;;;;;;18.06;42.30;101255.88;5094089;28;20036;-71
2021/03/04 09:37:45;;;;;;;11.23;8.75;;;;;;;18.72;40.07;101248.34;5094354;28;20035;-71
2021/03/04 09:40:24;;;;;;;12.52;8.15;;;;;;;18.98;39.78;101246.50;5094235;28;20096;-70
2021/03/04 09:42:50;;;;;;;9.38;8.05;;;;;;;19.89;38.29;101244.41;5094220;28;20114;-71
2021/03/04 09:45:16;;;;;;;7.55;6.85;;;;;;;20.32;36.57;101239.59;5093804;28;20542;-71
2021/03/04 09:47:47;;;;;;;13.05;7.65;;;;;;;21.04;34.72;101242.31;5093878;28;20081;-71
2021/03/04 09:50:39;;;;;;;15.18;9.88;;;;;;;21.12;34.26;101243.91;5094447;28;20257;-71
2021/03/04 09:53:07;;;;;;;7.25;6.55;;;;;;;20.54;34.34;101236.78;5088989;28;20047;-71
2021/03/04 09:55:40;;;;;;;9.18;7.22;;;;;;;20.72;34.58;101236.75;5093708;28;20065;-71
2021/03/04 09:58:13;;;;;;;;;;;;;;;21.33;32.85;101226.06;5094357;28;20032;-71
2021/03/04 10:00:40;;;;;;;7.00;6.40;;;;;;;21.88;31.99;101234.63;5094313;28;19973;-71
2021/03/04 10:03:32;;;;;;;6.70;6.05;;;;;;;22.07;31.49;101241.00;5093742;28;20305;-71
2021/03/04 10:05:58;;;;;;;7.00;5.97;;;;;;;21.74;32.51;101239.63;5082934;28;20039;-71
2021/03/04 10:08:24;;;;;;;6.80;5.85;;;;;;;22.02;31.40;101238.59;5092654;28;20429;-71
2021/03/04 10:10:51;;;;;;;7.22;5.88;;;;;;;22.51;29.95;101230.94;5092766;28;20032;-71
2021/03/04 10:13:27;;;;;;;6.32;5.78;;;;;;;22.76;29.94;101225.81;5094699;28;20036;-71
2021/03/04 10:15:53;;;;;;;8.07;7.07;;;;;;;22.11;31.40;101231.28;5093655;28;20054;-71
2021/03/04 10:18:19;;;;;;;13.75;7.35;;;;;;;21.22;33.89;101231.75;5093049;28;20412;-71
2021/03/04 10:20:46;;;;;;;7.72;6.43;;;;;;;21.62;33.65;101235.22;5092899;28;20060;-71
2021/03/04 10:23:15;;;;;;;6.47;5.60;;;;;;;20.07;32.91;101224.66;5093110;28;20027;-71
2021/03/04 10:25:43;;;;;;;8.32;5.72;;;;;;;20.37;31.10;101224.25;5093771;28;20043;-71
2021/03/04 10:28:09;;;;;;;11.70;7.15;;;;;;;19.98;32.82;101227.09;5093365;28;20024;-71
2021/03/04 10:30:37;;;;;;;7.55;6.40;;;;;;;20.77;33.06;101222.19;5094915;28;20074;-71
2021/03/04 10:33:06;;;;;;;6.15;5.65;;;;;;;20.45;32.70;101216.56;5093295;28;20020;-71
2021/03/04 10:35:35;;;;;;;8.13;5.80;;;;;;;20.64;33.07;101214.16;5092938;28;20028;-71
2021/03/04 10:38:00;;;;;;;7.93;6.38;;;;;;;20.19;33.37;101210.16;5092604;28;20058;-71
2021/03/04 10:40:26;;;;;;;6.05;5.00;;;;;;;19.82;29.69;101210.53;5092860;28;20059;-71
2021/03/04 10:42:52;;;;;;;8.38;6.30;;;;;;;20.32;32.53;101211.34;5092885;28;20024;-71
2021/03/04 10:45:18;;;;;;;6.35;5.70;;;;;;;19.61;34.72;101197.97;5093208;28;20039;-71
2021/03/04 10:47:46;;;;;;;9.20;6.53;;;;;;;19.89;35.18;101194.38;5092663;28;20038;-71
2021/03/04 10:50:18;;;;;;;6.38;5.53;;;;;;;19.79;33.86;101186.72;5092739;28;20024;-70
2021/03/04 10:52:45;;;;;;;7.47;5.85;;;;;;;19.12;34.84;101176.03;5092417;28;20020;-70
2021/03/04 10:55:11;;;;;;;5.90;5.20;;;;;;;19.68;33.07;101173.78;5092678;28;20036;-70
2021/03/04 10:57:38;;;;;;;7.43;5.55;;;;;;;19.93;32.56;101173.81;5094158;28;20032;-71
2021/03/04 11:00:12;;;;;;;6.40;5.28;;;;;;;20.82;32.28;101174.50;5093075;28;20483;-71
2021/03/04 11:02:38;;;;;;;7.00;5.75;;;;;;;20.79;31.10;101175.31;5093765;28;20082;-71
2021/03/04 11:05:05;;;;;;;5.10;4.57;;;;;;;19.85;27.52;101170.16;5092860;28;20482;-71
2021/03/04 11:07:31;;;;;;;4.57;3.67;;;;;;;20.26;26.88;101161.28;5093854;28;20081;-71
2021/03/04 11:09:56;;;;;;;4.55;4.15;;;;;;;21.11;28.02;101163.09;5092772;28;20031;-70
2021/03/04 11:12:22;;;;;;;7.65;4.97;;;;;;;20.06;31.49;101155.25;5092221;28;20445;-71
2021/03/04 11:14:48;;;;;;;5.65;5.05;;;;;;;19.29;32.25;101147.09;5092842;28;20034;-71
2021/03/04 11:17:14;;;;;;;6.38;4.78;;;;;;;19.91;30.50;101147.97;5092323;28;20471;-70
2021/03/04 11:19:40;;;;;;;4.95;4.25;;;;;;;20.51;29.95;101141.50;5091829;28;20044;-71
2021/03/04 11:22:06;;;;;;;4.63;4.22;;;;;;;19.82;30.66;101139.94;5092430;28;20050;-71
2021/03/04 11:24:32;;;;;;;6.97;5.25;;;;;;;18.90;29.60;101129.22;5092300;28;20137;-70
2021/03/04 11:26:58;;;;;;;3.60;3.30;;;;;;;19.02;28.19;101126.88;5092816;28;20028;-71
2021/03/04 11:29:23;;;;;;;4.75;3.78;;;;;;;19.04;29.84;101132.09;5092846;28;20527;-71